createdAt,value
2022-12-25T00:00:58.002Z,7.66
2022-12-25T00:01:57.970Z,7.67
2022-12-25T00:02:58.057Z,7.67
2022-12-25T00:03:58.083Z,7.67
2022-12-25T00:04:57.920Z,7.67
2022-12-25T00:05:57.920Z,7.67
2022-12-25T00:06:57.917Z,7.70
2022-12-25T00:07:57.887Z,7.70
2022-12-25T00:08:57.879Z,7.69
2022-12-25T00:09:57.851Z,7.69
2022-12-25T00:10:57.895Z,7.70
2022-12-25T00:11:57.867Z,7.73
2022-12-25T00:12:57.833Z,7.72
2022-12-25T00:13:57.815Z,7.72
2022-12-25T00:14:57.818Z,7.72
2022-12-25T00:15:57.814Z,7.73
2022-12-25T00:16:57.856Z,7.77
2022-12-25T00:17:57.784Z,7.77
2022-12-25T00:18:57.773Z,7.80
2022-12-25T00:19:57.768Z,7.83
2022-12-25T00:20:57.746Z,7.85
2022-12-25T00:21:57.770Z,7.83
2022-12-25T00:22:57.737Z,7.79
2022-12-25T00:23:57.737Z,7.76
2022-12-25T00:24:57.717Z,7.75
2022-12-25T00:25:57.710Z,7.75
2022-12-25T00:26:57.708Z,7.76
2022-12-25T00:27:57.672Z,7.76
2022-12-25T00:28:57.677Z,7.80
2022-12-25T00:29:57.656Z,7.82
2022-12-25T00:30:57.681Z,7.82
2022-12-25T00:31:57.664Z,7.82
2022-12-25T00:32:57.625Z,7.80
2022-12-25T00:33:57.611Z,7.82
2022-12-25T00:34:57.611Z,7.77
2022-12-25T00:35:57.592Z,7.76
2022-12-25T00:36:57.611Z,7.73
2022-12-25T00:37:57.610Z,7.76
2022-12-25T00:38:57.584Z,7.73
2022-12-25T00:39:57.612Z,7.72
2022-12-25T00:40:57.599Z,7.69
2022-12-25T00:41:57.551Z,7.69
2022-12-25T00:42:57.550Z,7.66
2022-12-25T00:43:57.537Z,7.61
2022-12-25T00:44:57.509Z,7.58
2022-12-25T00:45:57.534Z,7.60
2022-12-25T00:46:57.564Z,7.58
2022-12-25T00:47:57.472Z,7.60
2022-12-25T00:48:57.470Z,7.61
2022-12-25T00:49:57.449Z,7.61
2022-12-25T00:50:57.445Z,7.60
2022-12-25T00:51:57.458Z,7.63
2022-12-25T00:52:57.432Z,7.66
2022-12-25T00:53:57.414Z,7.67
2022-12-25T00:54:57.402Z,7.66
2022-12-25T00:55:57.414Z,7.67
2022-12-25T00:56:57.412Z,7.69
2022-12-25T00:57:57.374Z,7.69
2022-12-25T00:58:57.380Z,7.69
2022-12-25T00:59:57.351Z,7.70
2022-12-25T01:00:57.471Z,7.72
2022-12-25T01:01:57.482Z,7.69
2022-12-25T01:02:57.549Z,7.69
2022-12-25T01:03:57.310Z,7.66
2022-12-25T01:04:57.333Z,7.63
2022-12-25T01:05:57.293Z,7.63
2022-12-25T01:06:57.301Z,7.61
2022-12-25T01:07:57.272Z,7.58
2022-12-25T01:08:57.257Z,7.60
2022-12-25T01:09:57.252Z,7.60
2022-12-25T01:10:57.238Z,7.60
2022-12-25T01:11:57.239Z,7.58
2022-12-25T01:12:57.250Z,7.61
2022-12-25T01:13:57.218Z,7.61
2022-12-25T01:14:57.229Z,7.66
2022-12-25T01:15:57.300Z,7.67
2022-12-25T01:16:57.303Z,7.72
2022-12-25T01:17:57.186Z,7.73
2022-12-25T01:18:57.183Z,7.75
2022-12-25T01:19:57.145Z,7.76
2022-12-25T01:21:03.632Z,7.77
2022-12-25T01:21:57.138Z,7.80
2022-12-25T01:22:57.114Z,7.82
2022-12-25T01:23:57.103Z,7.83
2022-12-25T01:24:57.117Z,7.85
2022-12-25T01:25:57.081Z,7.82
2022-12-25T01:26:57.094Z,7.82
2022-12-25T01:27:57.064Z,7.85
2022-12-25T01:28:57.061Z,7.83
2022-12-25T01:29:57.046Z,7.85
2022-12-25T01:30:57.068Z,7.88
2022-12-25T01:31:57.116Z,7.87
2022-12-25T01:32:57.025Z,7.88
2022-12-25T01:33:57.013Z,7.90
2022-12-25T01:34:56.994Z,7.91
2022-12-25T01:35:56.989Z,7.94
2022-12-25T01:36:56.994Z,7.97
2022-12-25T01:37:56.973Z,8.00
2022-12-25T01:38:56.970Z,8.00
2022-12-25T01:39:56.967Z,8.03
2022-12-25T01:40:56.938Z,8.05
2022-12-25T01:41:56.954Z,8.06
2022-12-25T01:42:56.920Z,8.08
2022-12-25T01:43:56.898Z,8.10
2022-12-25T01:44:56.903Z,8.12
2022-12-25T01:45:56.915Z,8.13
2022-12-25T01:46:56.897Z,8.13
2022-12-25T01:47:56.869Z,8.16
2022-12-25T01:48:56.873Z,8.18
2022-12-25T01:49:56.849Z,8.19
2022-12-25T01:50:56.828Z,8.24
2022-12-25T01:51:56.865Z,8.27
2022-12-25T01:52:56.838Z,8.30
2022-12-25T01:53:56.790Z,8.31
2022-12-25T01:54:56.797Z,8.30
2022-12-25T01:56:03.258Z,8.27
2022-12-25T01:56:56.812Z,8.27
2022-12-25T01:58:03.245Z,8.27
2022-12-25T01:59:03.226Z,8.27
2022-12-25T01:59:56.748Z,8.28
2022-12-25T02:01:02.877Z,8.31
2022-12-25T02:01:56.947Z,8.31
2022-12-25T02:02:56.876Z,8.36
2022-12-25T02:03:56.698Z,8.36
2022-12-25T02:04:56.681Z,8.37
2022-12-25T02:05:56.685Z,8.38
2022-12-25T02:06:56.666Z,8.41
2022-12-25T02:07:56.673Z,8.41
2022-12-25T02:08:56.637Z,8.38
2022-12-25T02:09:56.633Z,8.38
2022-12-25T02:10:56.634Z,8.38
2022-12-25T02:11:56.632Z,8.37
2022-12-25T02:12:56.672Z,8.36
2022-12-25T02:13:56.613Z,8.31
2022-12-25T02:15:02.881Z,8.28
2022-12-25T02:15:56.593Z,8.26
2022-12-25T02:16:58.855Z,8.24
2022-12-25T02:17:56.590Z,8.24
2022-12-25T02:18:56.551Z,8.27
2022-12-25T02:19:56.550Z,8.26
2022-12-25T02:20:56.550Z,8.28
2022-12-25T02:21:56.604Z,8.28
2022-12-25T02:22:56.527Z,8.27
2022-12-25T02:23:56.513Z,8.27
2022-12-25T02:24:56.494Z,8.27
2022-12-25T02:25:56.497Z,8.27
2022-12-25T02:26:56.485Z,8.30
2022-12-25T02:27:56.473Z,8.31
2022-12-25T02:28:56.437Z,8.31
2022-12-25T02:29:56.475Z,8.31
2022-12-25T02:30:56.426Z,8.30
2022-12-25T02:31:56.471Z,8.33
2022-12-25T02:32:56.419Z,8.33
2022-12-25T02:33:56.388Z,8.34
2022-12-25T02:34:56.378Z,8.36
2022-12-25T02:35:56.361Z,8.33
2022-12-25T02:36:56.362Z,8.30
2022-12-25T02:37:56.364Z,8.28
2022-12-25T02:38:56.335Z,8.28
2022-12-25T02:39:56.326Z,8.27
2022-12-25T02:40:56.310Z,8.24
2022-12-25T02:41:56.309Z,8.26
2022-12-25T02:42:56.313Z,8.27
2022-12-25T02:43:56.296Z,8.28
2022-12-25T02:44:56.272Z,8.31
2022-12-25T02:45:56.289Z,8.33
2022-12-25T02:46:56.256Z,8.31
2022-12-25T02:47:56.267Z,8.33
2022-12-25T02:48:56.263Z,8.34
2022-12-25T02:49:56.237Z,8.33
2022-12-25T02:50:56.209Z,8.33
2022-12-25T02:51:56.202Z,8.33
2022-12-25T02:52:56.216Z,8.34
2022-12-25T02:53:56.182Z,8.36
2022-12-25T02:54:56.176Z,8.37
2022-12-25T02:55:56.165Z,8.38
2022-12-25T02:56:56.190Z,8.41
2022-12-25T02:57:56.163Z,8.37
2022-12-25T02:58:56.122Z,8.38
2022-12-25T02:59:56.116Z,8.37
2022-12-25T03:00:56.135Z,8.38
2022-12-25T03:01:56.260Z,8.41
2022-12-25T03:02:56.180Z,8.38
2022-12-25T03:03:56.076Z,8.37
2022-12-25T03:04:56.068Z,8.38
2022-12-25T03:05:56.046Z,8.38
2022-12-25T03:06:56.050Z,8.38
2022-12-25T03:07:56.061Z,8.38
2022-12-25T03:08:56.032Z,8.38
2022-12-25T03:09:56.012Z,8.38
2022-12-25T03:10:56.060Z,8.38
2022-12-25T03:11:55.996Z,8.37
2022-12-25T03:12:56.011Z,8.41
2022-12-25T03:13:55.967Z,8.41
2022-12-25T03:14:55.985Z,8.44
2022-12-25T03:15:55.954Z,8.46
2022-12-25T03:16:56.076Z,8.46
2022-12-25T03:17:55.928Z,8.46
2022-12-25T03:18:55.954Z,8.45
2022-12-25T03:19:55.914Z,8.46
2022-12-25T03:20:55.911Z,8.45
2022-12-25T03:21:55.904Z,8.44
2022-12-25T03:22:55.880Z,8.45
2022-12-25T03:23:55.903Z,8.46
2022-12-25T03:24:55.912Z,8.45
2022-12-25T03:25:55.847Z,8.45
2022-12-25T03:26:55.849Z,8.46
2022-12-25T03:27:55.853Z,8.48
2022-12-25T03:28:55.849Z,8.46
2022-12-25T03:29:55.808Z,8.42
2022-12-25T03:30:55.836Z,8.38
2022-12-25T03:31:55.789Z,8.37
2022-12-25T03:32:55.784Z,8.36
2022-12-25T03:33:55.808Z,8.34
2022-12-25T03:34:55.762Z,8.33
2022-12-25T03:35:55.757Z,8.33
2022-12-25T03:36:55.749Z,8.33
2022-12-25T03:37:55.729Z,8.33
2022-12-25T03:38:55.744Z,8.36
2022-12-25T03:39:55.718Z,8.38
2022-12-25T03:40:55.695Z,8.41
2022-12-25T03:42:02.173Z,8.38
2022-12-25T03:43:02.162Z,8.41
2022-12-25T03:44:03.477Z,8.38
2022-12-25T03:44:55.657Z,8.42
2022-12-25T03:45:55.737Z,8.38
2022-12-25T03:46:55.644Z,8.37
2022-12-25T03:47:55.624Z,8.37
2022-12-25T03:48:55.635Z,8.34
2022-12-25T03:49:55.602Z,8.34
2022-12-25T03:50:55.593Z,8.36
2022-12-25T03:51:55.603Z,8.37
2022-12-25T03:52:55.581Z,8.36
2022-12-25T03:53:55.592Z,8.34
2022-12-25T03:54:55.561Z,8.34
2022-12-25T03:55:55.582Z,8.31
2022-12-25T03:56:55.537Z,8.28
2022-12-25T03:57:55.525Z,8.28
2022-12-25T04:00:22.529Z,8.27
2022-12-25T04:00:27.547Z,8.26
2022-12-25T04:01:27.707Z,8.26
2022-12-25T04:02:27.746Z,8.28
2022-12-25T04:03:27.572Z,8.28
2022-12-25T04:04:27.531Z,8.30
2022-12-25T04:05:27.494Z,8.31
2022-12-25T04:06:27.496Z,8.33
2022-12-25T04:07:27.487Z,8.31
2022-12-25T04:08:27.467Z,8.28
2022-12-25T04:09:27.478Z,8.28
2022-12-25T04:10:27.469Z,8.26
2022-12-25T04:11:27.431Z,8.26
2022-12-25T04:12:27.431Z,8.26
2022-12-25T04:13:27.419Z,8.26
2022-12-25T04:14:27.425Z,8.26
2022-12-25T04:15:27.427Z,8.26
2022-12-25T04:16:27.466Z,8.27
2022-12-25T04:17:27.381Z,8.28
2022-12-25T04:18:27.370Z,8.30
2022-12-25T04:19:27.391Z,8.30
2022-12-25T04:20:27.348Z,8.31
2022-12-25T04:21:27.338Z,8.36
2022-12-25T04:22:27.319Z,8.38
2022-12-25T04:23:27.302Z,8.36
2022-12-25T04:24:27.325Z,8.37
2022-12-25T04:25:27.292Z,8.37
2022-12-25T04:26:27.281Z,8.37
2022-12-25T04:27:27.263Z,8.41
2022-12-25T04:28:27.277Z,8.38
2022-12-25T04:29:27.267Z,8.38
2022-12-25T04:30:27.235Z,8.38
2022-12-25T04:31:27.295Z,8.42
2022-12-25T04:32:27.218Z,8.42
2022-12-25T04:33:27.211Z,8.46
2022-12-25T04:34:27.245Z,8.46
2022-12-25T04:35:27.182Z,8.46
2022-12-25T04:36:27.175Z,8.49
2022-12-25T04:37:27.171Z,8.52
2022-12-25T04:38:27.162Z,8.55
2022-12-25T04:39:27.172Z,8.58
2022-12-25T04:40:27.145Z,8.61
2022-12-25T04:41:27.125Z,8.66
2022-12-25T04:42:27.116Z,8.69
2022-12-25T04:43:27.103Z,8.71
2022-12-25T04:44:27.114Z,8.74
2022-12-25T04:45:27.079Z,8.74
2022-12-25T04:46:27.163Z,8.76
2022-12-25T04:47:27.067Z,8.78
2022-12-25T04:48:27.064Z,8.81
2022-12-25T04:49:27.064Z,8.78
2022-12-25T04:50:27.051Z,8.74
2022-12-25T04:51:27.049Z,8.69
2022-12-25T04:52:27.023Z,8.58
2022-12-25T04:53:27.011Z,8.53
2022-12-25T04:54:27.014Z,8.51
2022-12-25T04:55:26.979Z,8.52
2022-12-25T04:56:26.968Z,8.52
2022-12-25T04:57:27.010Z,8.53
2022-12-25T04:58:26.953Z,8.53
2022-12-25T04:59:26.968Z,8.55
2022-12-25T05:00:26.954Z,8.56
2022-12-25T05:01:27.040Z,8.56
2022-12-25T05:02:27.141Z,8.61
2022-12-25T05:03:26.959Z,8.64
2022-12-25T05:04:26.896Z,8.66
2022-12-25T05:05:26.902Z,8.67
2022-12-25T05:06:26.902Z,8.67
2022-12-25T05:07:26.857Z,8.69
2022-12-25T05:08:26.849Z,8.69
2022-12-25T05:09:26.836Z,8.70
2022-12-25T05:10:26.862Z,8.70
2022-12-25T05:11:26.814Z,8.70
2022-12-25T05:12:26.811Z,8.69
2022-12-25T05:13:26.795Z,8.66
2022-12-25T05:14:26.783Z,8.66
2022-12-25T05:15:26.788Z,8.67
2022-12-25T05:16:26.891Z,8.67
2022-12-25T05:17:26.759Z,8.66
2022-12-25T05:18:26.747Z,8.66
2022-12-25T05:19:26.725Z,8.66
2022-12-25T05:20:26.749Z,8.67
2022-12-25T05:21:26.714Z,8.67
2022-12-25T05:22:26.721Z,8.71
2022-12-25T05:23:26.687Z,8.71
2022-12-25T05:24:26.696Z,8.71
2022-12-25T05:25:26.689Z,8.73
2022-12-25T05:26:26.671Z,8.73
2022-12-25T05:27:26.648Z,8.74
2022-12-25T05:28:26.643Z,8.74
2022-12-25T05:29:26.621Z,8.76
2022-12-25T05:30:26.643Z,8.79
2022-12-25T05:31:26.653Z,8.79
2022-12-25T05:32:26.596Z,8.76
2022-12-25T05:33:26.596Z,8.74
2022-12-25T05:34:26.575Z,8.74
2022-12-25T05:35:26.596Z,8.73
2022-12-25T05:36:26.565Z,8.71
2022-12-25T05:37:26.554Z,8.70
2022-12-25T05:38:26.542Z,8.69
2022-12-25T05:39:26.522Z,8.69
2022-12-25T05:40:26.537Z,8.69
2022-12-25T05:41:32.228Z,8.70
2022-12-25T05:42:26.497Z,8.69
2022-12-25T05:43:26.479Z,8.67
2022-12-25T05:44:26.473Z,8.69
2022-12-25T05:45:26.489Z,8.71
2022-12-25T05:46:26.508Z,8.69
2022-12-25T05:47:26.457Z,8.66
2022-12-25T05:48:26.378Z,8.66
2022-12-25T05:49:26.361Z,-39.76
2022-12-25T05:50:26.394Z,-39.76
2022-12-25T05:51:26.339Z,-39.76
2022-12-25T05:52:26.341Z,-39.76
2022-12-25T05:53:26.335Z,-39.76
2022-12-25T05:54:26.313Z,-39.76
2022-12-25T05:55:26.329Z,-39.76
2022-12-25T05:56:26.295Z,-39.76
2022-12-25T05:57:26.282Z,-39.76
2022-12-25T05:58:26.271Z,-39.76
2022-12-25T05:59:26.269Z,-39.76
2022-12-25T06:00:26.250Z,-39.76
2022-12-25T06:01:26.304Z,-39.76
2022-12-25T06:02:33.497Z,-39.76
2022-12-25T06:03:26.360Z,-39.76
2022-12-25T06:04:32.689Z,-39.76
2022-12-25T06:05:34.018Z,-39.76
2022-12-25T06:06:26.190Z,-39.76
2022-12-25T06:07:26.195Z,-39.76
2022-12-25T06:08:26.161Z,-39.76
2022-12-25T06:09:26.160Z,-39.76
2022-12-25T06:10:26.140Z,-39.76
2022-12-25T06:11:26.160Z,-39.76
2022-12-25T06:12:26.144Z,-39.76
2022-12-25T06:13:26.113Z,-39.76
2022-12-25T06:14:26.102Z,-39.76
2022-12-25T06:15:26.097Z,-39.76
2022-12-25T06:16:26.159Z,-39.76
2022-12-25T06:17:26.098Z,-39.76
2022-12-25T06:18:26.069Z,-39.76
2022-12-25T06:19:26.055Z,-39.76
2022-12-25T06:20:26.043Z,-39.76
2022-12-25T06:21:26.055Z,-39.76
2022-12-25T06:22:26.025Z,-39.76
2022-12-25T06:23:26.056Z,-39.76
2022-12-25T06:24:25.997Z,-39.76
2022-12-25T06:25:25.995Z,-39.76
2022-12-25T06:26:25.996Z,-39.76
2022-12-25T06:27:25.971Z,-39.76
2022-12-25T06:28:25.956Z,-39.76
2022-12-25T06:29:25.949Z,-39.76
2022-12-25T06:30:25.933Z,-39.76
2022-12-25T06:31:31.990Z,-39.76
2022-12-25T06:32:32.426Z,-39.76
2022-12-25T06:33:32.396Z,-39.76
2022-12-25T06:34:32.374Z,-39.76
2022-12-25T06:35:31.877Z,-39.76
2022-12-25T06:36:33.606Z,-39.76
2022-12-25T06:37:25.874Z,-39.76
2022-12-25T06:38:25.853Z,-39.76
2022-12-25T06:39:25.848Z,-39.76
2022-12-25T06:40:25.831Z,-39.76
2022-12-25T06:41:25.851Z,-39.76
2022-12-25T06:42:25.816Z,-39.76
2022-12-25T06:43:25.811Z,-39.76
2022-12-25T06:44:25.790Z,-39.76
2022-12-25T06:45:25.837Z,-39.76
2022-12-25T06:46:25.867Z,-39.76
2022-12-25T06:47:25.803Z,-39.76
2022-12-25T06:48:25.764Z,-39.76
2022-12-25T06:49:25.751Z,-39.76
2022-12-25T06:50:25.740Z,-39.76
2022-12-25T06:51:25.746Z,-39.76
2022-12-25T06:52:25.714Z,-39.76
2022-12-25T06:53:25.706Z,-39.76
2022-12-25T06:54:25.687Z,-39.76
2022-12-25T06:55:25.688Z,-39.76
2022-12-25T06:56:25.692Z,-39.76
2022-12-25T06:57:25.671Z,-39.76
2022-12-25T06:58:25.644Z,-39.76
2022-12-25T06:59:25.642Z,-39.76
2022-12-25T07:00:25.627Z,-39.76
2022-12-25T07:01:25.797Z,-39.76
2022-12-25T07:02:25.695Z,-39.76
2022-12-25T07:03:25.666Z,-39.76
2022-12-25T07:04:25.591Z,-39.76
2022-12-25T07:05:25.579Z,-39.76
2022-12-25T07:06:25.588Z,-39.76
2022-12-25T07:07:25.569Z,-39.76
2022-12-25T07:08:25.553Z,-39.76
2022-12-25T07:09:25.538Z,-39.76
2022-12-25T07:10:25.527Z,-39.76
2022-12-25T07:11:25.567Z,-39.76
2022-12-25T07:12:25.510Z,-39.76
2022-12-25T07:13:26.289Z,-39.76
2022-12-25T07:14:25.480Z,-39.76
2022-12-25T07:15:25.483Z,-39.76
2022-12-25T07:16:25.500Z,-39.76
2022-12-25T07:17:25.455Z,-39.76
2022-12-25T07:18:25.466Z,-39.76
2022-12-25T07:19:25.436Z,-39.76
2022-12-25T07:20:25.432Z,-39.76
2022-12-25T07:21:25.451Z,-39.76
2022-12-25T07:22:25.401Z,-39.76
2022-12-25T07:23:25.394Z,-39.76
2022-12-25T07:24:25.386Z,-39.76
2022-12-25T07:25:25.372Z,-39.76
2022-12-25T07:26:25.360Z,-39.76
2022-12-25T07:27:25.403Z,-39.76
2022-12-25T07:28:25.352Z,-39.76
2022-12-25T07:29:25.339Z,-39.76
2022-12-25T07:30:25.318Z,-39.76
2022-12-25T07:31:25.393Z,-39.76
2022-12-25T07:32:25.366Z,-39.76
2022-12-25T07:33:25.309Z,-39.76
2022-12-25T07:34:25.289Z,-39.76
2022-12-25T07:35:25.275Z,-39.76
2022-12-25T07:36:25.266Z,-39.76
2022-12-25T07:37:25.310Z,-39.76
2022-12-25T07:38:25.257Z,-39.76
2022-12-25T07:39:25.235Z,-39.76
2022-12-25T07:40:25.215Z,-39.76
2022-12-25T07:41:25.223Z,-39.76
2022-12-25T07:42:25.619Z,-39.76
2022-12-25T07:43:25.205Z,-39.76
2022-12-25T07:44:25.184Z,-39.76
2022-12-25T07:45:25.215Z,-39.76
2022-12-25T07:46:25.267Z,-39.76
2022-12-25T07:47:25.187Z,-39.76
2022-12-25T07:48:25.145Z,-39.76
2022-12-25T07:49:25.128Z,-39.76
2022-12-25T07:50:25.106Z,-39.76
2022-12-25T07:51:25.113Z,-39.76
2022-12-25T07:52:25.233Z,-39.76
2022-12-25T07:53:25.109Z,-39.76
2022-12-25T07:54:25.085Z,-39.76
2022-12-25T07:55:25.111Z,-39.76
2022-12-25T07:56:25.077Z,-39.76
2022-12-25T07:57:25.096Z,-39.76
2022-12-25T07:58:25.057Z,-39.76
2022-12-25T07:59:25.021Z,-39.76
2022-12-25T08:00:25.032Z,-39.76
2022-12-25T08:01:25.292Z,-39.76
2022-12-25T08:02:25.498Z,-39.76
2022-12-25T08:03:25.166Z,-39.76
2022-12-25T08:04:25.003Z,-39.76
2022-12-25T08:05:25.007Z,-39.76
2022-12-25T08:06:24.943Z,-39.76
2022-12-25T08:07:24.998Z,-39.76
2022-12-25T08:08:24.932Z,-39.76
2022-12-25T08:09:24.928Z,-39.76
2022-12-25T08:10:24.922Z,-39.76
2022-12-25T08:11:24.931Z,-39.76
2022-12-25T08:12:24.977Z,-39.76
2022-12-25T08:13:24.899Z,-39.76
2022-12-25T08:14:24.866Z,-39.76
2022-12-25T08:15:24.871Z,-39.76
2022-12-25T08:16:24.950Z,-39.76
2022-12-25T08:17:24.885Z,-39.76
2022-12-25T08:18:29.839Z,-39.76
2022-12-25T08:19:24.850Z,-39.76
2022-12-25T08:20:24.819Z,-39.76
2022-12-25T08:21:24.795Z,-39.76
2022-12-25T08:22:24.808Z,-39.76
2022-12-25T08:23:24.797Z,-39.76
2022-12-25T08:24:24.792Z,-39.76
2022-12-25T08:25:24.759Z,-39.76
2022-12-25T08:26:24.748Z,-39.76
2022-12-25T08:27:24.758Z,-39.76
2022-12-25T08:28:24.722Z,-39.76
2022-12-25T08:29:24.717Z,-39.76
2022-12-25T08:30:24.703Z,-39.76
2022-12-25T08:31:24.769Z,-39.76
2022-12-25T08:32:24.711Z,-39.76
2022-12-25T08:33:24.672Z,-39.76
2022-12-25T08:34:24.659Z,-39.76
2022-12-25T08:35:24.653Z,-39.76
2022-12-25T08:36:24.663Z,-39.76
2022-12-25T08:37:24.655Z,-39.76
2022-12-25T08:38:24.619Z,-39.76
2022-12-25T08:39:24.619Z,-39.76
2022-12-25T08:40:24.667Z,-39.76
2022-12-25T08:41:24.595Z,-39.76
2022-12-25T08:42:24.624Z,-39.76
2022-12-25T08:43:24.575Z,-39.76
2022-12-25T08:44:24.563Z,-39.76
2022-12-25T08:45:27.394Z,-39.76
2022-12-25T08:46:24.652Z,-39.76
2022-12-25T08:47:24.530Z,-39.76
2022-12-25T08:48:24.566Z,-39.76
2022-12-25T08:49:24.533Z,-39.76
2022-12-25T08:50:24.554Z,-39.76
2022-12-25T08:51:24.498Z,-39.76
2022-12-25T08:52:24.477Z,-39.76
2022-12-25T08:53:24.523Z,-39.76
2022-12-25T08:54:24.487Z,-39.76
2022-12-25T08:55:24.455Z,-39.76
2022-12-25T08:56:24.448Z,-39.76
2022-12-25T08:57:24.429Z,-39.76
2022-12-25T08:58:24.438Z,-39.76
2022-12-25T08:59:24.404Z,-39.76
2022-12-25T09:00:24.403Z,-39.76
2022-12-25T09:01:24.473Z,-39.76
2022-12-25T09:02:24.532Z,-39.76
2022-12-25T09:03:24.599Z,-39.76
2022-12-25T09:04:24.360Z,-39.76
2022-12-25T09:05:24.355Z,-39.76
2022-12-25T09:06:24.334Z,-39.76
2022-12-25T09:07:24.344Z,-39.76
2022-12-25T09:08:24.350Z,-39.76
2022-12-25T09:09:24.319Z,-39.76
2022-12-25T09:10:24.299Z,-39.76
2022-12-25T09:11:24.283Z,-39.76
2022-12-25T09:12:24.294Z,-39.76
2022-12-25T09:13:24.286Z,-39.76
2022-12-25T09:14:24.256Z,-39.76
2022-12-25T09:15:24.247Z,-39.76
2022-12-25T09:16:24.321Z,-39.76
2022-12-25T09:17:24.310Z,-39.76
2022-12-25T09:18:24.230Z,-39.76
2022-12-25T09:19:24.201Z,-39.76
2022-12-25T09:20:24.204Z,-39.76
2022-12-25T09:21:24.183Z,-39.76
2022-12-25T09:22:24.221Z,-39.76
2022-12-25T09:23:24.184Z,-39.76
2022-12-25T09:24:24.156Z,-39.76
2022-12-25T09:25:24.145Z,-39.76
2022-12-25T09:26:24.138Z,-39.76
2022-12-25T09:27:24.128Z,-39.76
2022-12-25T09:28:24.139Z,-39.76
2022-12-25T09:29:24.107Z,-39.76
2022-12-25T09:30:24.095Z,-39.76
2022-12-25T09:31:24.209Z,-39.76
2022-12-25T09:32:24.079Z,-39.76
2022-12-25T09:33:24.076Z,-39.76
2022-12-25T09:34:24.043Z,-39.76
2022-12-25T09:35:24.045Z,-39.76
2022-12-25T09:36:24.053Z,-39.76
2022-12-25T09:37:24.027Z,-39.76
2022-12-25T09:38:24.028Z,-39.76
2022-12-25T09:39:24.012Z,-39.76
2022-12-25T09:40:24.001Z,-39.76
2022-12-25T09:41:23.984Z,-39.76
2022-12-25T09:42:23.959Z,-39.76
2022-12-25T09:43:31.611Z,-39.76
2022-12-25T09:44:31.204Z,-39.76
2022-12-25T09:45:30.431Z,-39.76
2022-12-25T09:46:24.023Z,-39.76
2022-12-25T09:47:23.929Z,-39.76
2022-12-25T09:48:23.903Z,-39.76
2022-12-25T09:49:23.940Z,-39.76
2022-12-25T09:50:23.891Z,-39.76
2022-12-25T09:51:23.874Z,-39.76
2022-12-25T09:52:23.865Z,-39.76
2022-12-25T09:53:23.868Z,-39.76
2022-12-25T09:54:23.874Z,-39.76
2022-12-25T09:55:23.835Z,-39.76
2022-12-25T09:56:23.827Z,-39.76
2022-12-25T09:57:23.809Z,-39.76
2022-12-25T09:58:23.797Z,-39.76
2022-12-25T09:59:23.819Z,-39.76
2022-12-25T10:00:23.807Z,-39.76
2022-12-25T10:01:23.852Z,-39.76
2022-12-25T10:02:24.042Z,-39.76
2022-12-25T10:03:23.827Z,-39.76
2022-12-25T10:04:23.794Z,-39.76
2022-12-25T10:05:23.744Z,-39.76
2022-12-25T10:06:23.744Z,-39.76
2022-12-25T10:07:23.708Z,-39.76
2022-12-25T10:08:23.729Z,-39.76
2022-12-25T10:09:23.735Z,-39.76
2022-12-25T10:10:23.690Z,-39.76
2022-12-25T10:11:23.668Z,-39.76
2022-12-25T10:12:23.675Z,-39.76
2022-12-25T10:13:23.682Z,-39.76
2022-12-25T10:14:23.776Z,-39.76
2022-12-25T10:15:23.648Z,-39.76
2022-12-25T10:16:23.724Z,-39.76
2022-12-25T10:17:23.618Z,-39.76
2022-12-25T10:18:23.618Z,-39.76
2022-12-25T10:19:23.609Z,-39.76
2022-12-25T10:20:23.586Z,-39.76
2022-12-25T10:21:23.577Z,-39.76
2022-12-25T10:22:23.564Z,-39.76
2022-12-25T10:23:23.547Z,-39.76
2022-12-25T10:24:23.572Z,-39.76
2022-12-25T10:25:23.522Z,-39.76
2022-12-25T10:26:23.531Z,-39.76
2022-12-25T10:27:23.499Z,-39.76
2022-12-25T10:28:23.497Z,-39.76
2022-12-25T10:29:23.517Z,-39.76
2022-12-25T10:30:23.501Z,-39.76
2022-12-25T10:31:23.559Z,-39.76
2022-12-25T10:32:23.448Z,-39.76
2022-12-25T10:33:23.459Z,-39.76
2022-12-25T10:34:23.485Z,-39.76
2022-12-25T10:35:23.415Z,-39.76
2022-12-25T10:36:23.425Z,-39.76
2022-12-25T10:37:23.398Z,-39.76
2022-12-25T10:38:23.391Z,-39.76
2022-12-25T10:39:23.397Z,-39.76
2022-12-25T10:40:23.393Z,-39.76
2022-12-25T10:41:23.393Z,-39.76
2022-12-25T10:42:23.359Z,-39.76
2022-12-25T10:43:23.344Z,-39.76
2022-12-25T10:44:23.361Z,-39.76
2022-12-25T10:45:23.329Z,-39.76
2022-12-25T10:46:23.426Z,-39.76
2022-12-25T10:47:23.297Z,-39.76
2022-12-25T10:48:23.316Z,-39.76
2022-12-25T10:49:23.274Z,-39.76
2022-12-25T10:50:23.293Z,-39.76
2022-12-25T10:51:23.256Z,-39.76
2022-12-25T10:52:23.256Z,-39.76
2022-12-25T10:53:23.255Z,-39.76
2022-12-25T10:54:23.247Z,-39.76
2022-12-25T10:55:28.436Z,-39.76
2022-12-25T10:56:23.218Z,-39.76
2022-12-25T10:57:23.209Z,-39.76
2022-12-25T10:58:23.238Z,-39.76
2022-12-25T10:59:23.185Z,-39.76
2022-12-25T11:00:23.195Z,-39.76
2022-12-25T11:01:23.338Z,-39.76
2022-12-25T11:02:23.410Z,-39.76
2022-12-25T11:03:23.346Z,-39.76
2022-12-25T11:04:23.125Z,-39.76
2022-12-25T11:05:23.135Z,-39.76
2022-12-25T11:06:23.121Z,-39.76
2022-12-25T11:07:23.092Z,-39.76
2022-12-25T11:08:23.097Z,-39.76
2022-12-25T11:09:23.082Z,-39.76
2022-12-25T11:10:23.108Z,-39.76
2022-12-25T11:11:23.154Z,-39.76
2022-12-25T11:12:23.057Z,-39.76
2022-12-25T11:13:23.039Z,-39.76
2022-12-25T11:14:23.041Z,-39.76
2022-12-25T11:15:23.028Z,-39.76
2022-12-25T11:16:23.071Z,-39.76
2022-12-25T11:17:22.989Z,-39.76
2022-12-25T11:18:22.989Z,-39.76
2022-12-25T11:19:22.976Z,-39.76
2022-12-25T11:20:22.989Z,-39.76
2022-12-25T11:21:22.955Z,-39.76
2022-12-25T11:22:29.438Z,-39.76
2022-12-25T11:23:22.925Z,-39.76
2022-12-25T11:24:22.929Z,-39.76
2022-12-25T11:25:30.664Z,-39.76
2022-12-25T11:26:29.393Z,-39.76
2022-12-25T11:27:29.384Z,-39.76
2022-12-25T11:28:22.885Z,-39.76
2022-12-25T11:29:22.880Z,-39.76
2022-12-25T11:30:22.885Z,-39.76
2022-12-25T11:31:22.968Z,-39.76
2022-12-25T11:32:22.864Z,-39.76
2022-12-25T11:33:22.843Z,-39.76
2022-12-25T11:34:22.830Z,-39.76
2022-12-25T11:35:22.835Z,-39.76
2022-12-25T11:36:22.816Z,-39.76
2022-12-25T11:37:22.812Z,-39.76
2022-12-25T11:38:22.780Z,-39.76
2022-12-25T11:39:22.804Z,-39.76
2022-12-25T11:40:22.779Z,-39.76
2022-12-25T11:41:22.749Z,-39.76
2022-12-25T11:42:22.739Z,-39.76
2022-12-25T11:43:22.735Z,-39.76
2022-12-25T11:44:22.717Z,-39.76
2022-12-25T11:45:22.734Z,-39.76
2022-12-25T11:46:22.745Z,-39.76
2022-12-25T11:47:22.693Z,-39.76
2022-12-25T11:48:22.705Z,-39.76
2022-12-25T11:49:22.664Z,-39.76
2022-12-25T11:50:22.688Z,-39.76
2022-12-25T11:51:22.654Z,-39.76
2022-12-25T11:52:22.674Z,-39.76
2022-12-25T11:53:22.678Z,-39.76
2022-12-25T11:54:22.616Z,-39.76
2022-12-25T11:55:22.631Z,-39.76
2022-12-25T11:56:22.603Z,-39.76
2022-12-25T11:57:22.594Z,-39.76
2022-12-25T11:58:22.611Z,-39.76
2022-12-25T11:59:22.564Z,-39.76
2022-12-25T12:00:22.607Z,-39.76
2022-12-25T12:01:22.585Z,-39.76
2022-12-25T12:02:22.732Z,-39.76
2022-12-25T12:03:22.664Z,-39.76
2022-12-25T12:04:27.631Z,-39.76
2022-12-25T12:05:22.545Z,-39.76
2022-12-25T12:06:22.496Z,-39.76
2022-12-25T12:07:22.520Z,-39.76
2022-12-25T12:08:22.506Z,-39.76
2022-12-25T12:09:28.943Z,-39.76
2022-12-25T12:10:22.480Z,-39.76
2022-12-25T12:11:22.446Z,-39.76
2022-12-25T12:12:22.437Z,-39.76
2022-12-25T12:13:22.437Z,-39.76
2022-12-25T12:14:22.423Z,-39.76
2022-12-25T12:15:22.433Z,-39.76
2022-12-25T12:16:22.438Z,-39.76
2022-12-25T12:17:22.396Z,-39.76
2022-12-25T12:18:22.405Z,-39.76
2022-12-25T12:19:22.359Z,-39.76
2022-12-25T12:20:22.361Z,-39.76
2022-12-25T12:21:22.384Z,-39.76
2022-12-25T12:22:22.347Z,-39.76
2022-12-25T12:23:22.320Z,-39.76
2022-12-25T12:24:22.323Z,-39.76
2022-12-25T12:25:22.296Z,-39.76
2022-12-25T12:26:22.311Z,-39.76
2022-12-25T12:27:22.285Z,-39.76
2022-12-25T12:28:22.274Z,-39.76
2022-12-25T12:29:22.265Z,-39.76
2022-12-25T12:30:22.257Z,-39.76
2022-12-25T12:31:22.328Z,-39.76
2022-12-25T12:32:22.237Z,-39.76
2022-12-25T12:33:22.220Z,-39.76
2022-12-25T12:34:22.215Z,-39.76
2022-12-25T12:35:22.205Z,-39.76
2022-12-25T12:36:29.238Z,-39.76
2022-12-25T12:37:25.015Z,-39.76
2022-12-25T12:38:22.177Z,-39.76
2022-12-25T12:39:22.173Z,-39.76
2022-12-25T12:40:22.156Z,-39.76
2022-12-25T12:41:22.188Z,-39.76
2022-12-25T12:42:22.137Z,-39.76
2022-12-25T12:43:22.117Z,-39.76
2022-12-25T12:44:22.116Z,-39.76
2022-12-25T12:45:22.108Z,-39.76
2022-12-25T12:46:29.796Z,-39.76
2022-12-25T12:47:22.085Z,-39.76
2022-12-25T12:48:22.073Z,-39.76
2022-12-25T12:49:22.067Z,-39.76
2022-12-25T12:50:22.053Z,-39.76
2022-12-25T12:51:22.058Z,-39.76